createdAt,value
2022-09-27T00:01:29.883Z,0.77
2022-09-27T00:03:58.727Z,0.60
2022-09-27T00:06:29.705Z,0.40
2022-09-27T00:08:57.914Z,0.40
2022-09-27T00:11:28.364Z,0.30
2022-09-27T00:13:56.309Z,0.70
2022-09-27T00:16:24.894Z,0.30
2022-09-27T00:18:52.714Z,0.60
2022-09-27T00:21:20.546Z,0.60
2022-09-27T00:23:49.560Z,0.73
2022-09-27T00:26:17.179Z,0.70
2022-09-27T00:28:45.059Z,0.70
2022-09-27T00:31:20.873Z,0.80
2022-09-27T00:33:49.783Z,0.45
2022-09-27T00:36:17.869Z,0.70
2022-09-27T00:38:45.868Z,0.55
2022-09-27T00:41:17.634Z,0.25
2022-09-27T00:43:48.077Z,0.60
2022-09-27T00:46:20.370Z,0.57
2022-09-27T00:48:48.492Z,0.20
2022-09-27T00:51:16.703Z,0.20
2022-09-27T00:53:46.951Z,0.25
2022-09-27T00:56:19.450Z,0.15
2022-09-27T00:58:49.981Z,0.10
2022-09-27T01:01:17.741Z,0.38
2022-09-27T01:03:50.295Z,0.10
2022-09-27T01:06:18.120Z,0.20
2022-09-27T01:08:46.097Z,0.10
2022-09-27T01:11:24.820Z,0.20
2022-09-27T01:14:02.971Z,0.10
2022-09-27T01:16:35.845Z,0.10
2022-09-27T01:19:10.843Z,0.20
2022-09-27T01:21:52.713Z,0.00
2022-09-27T01:24:49.583Z,0.00
2022-09-27T01:27:47.974Z,0.00
2022-09-27T01:30:22.724Z,0.10
2022-09-27T01:32:56.280Z,0.20
2022-09-27T01:35:29.981Z,0.17
2022-09-27T01:38:06.646Z,0.17
2022-09-27T01:40:38.664Z,0.20
2022-09-27T01:43:10.759Z,0.30
2022-09-27T01:45:44.562Z,0.23
2022-09-27T01:48:15.371Z,0.38
2022-09-27T01:50:47.086Z,0.40
2022-09-27T01:53:18.794Z,0.30
2022-09-27T01:55:49.732Z,0.30
2022-09-27T01:58:21.488Z,0.63
2022-09-27T02:00:52.577Z,0.40
2022-09-27T02:03:22.076Z,0.53
2022-09-27T02:05:54.594Z,0.35
2022-09-27T02:08:26.435Z,0.40
2022-09-27T02:10:55.730Z,0.45
2022-09-27T02:13:24.782Z,0.28
2022-09-27T02:15:59.355Z,0.35
2022-09-27T02:18:31.099Z,0.13
2022-09-27T02:21:00.143Z,0.20
2022-09-27T02:23:33.153Z,0.10
2022-09-27T02:26:05.042Z,0.30
2022-09-27T02:28:36.552Z,0.30
2022-09-27T02:31:05.859Z,0.20
2022-09-27T02:33:36.859Z,0.50
2022-09-27T02:36:04.517Z,0.15
2022-09-27T02:38:32.631Z,0.20
2022-09-27T02:41:00.397Z,0.30
2022-09-27T02:43:30.447Z,0.10
2022-09-27T02:46:10.229Z,0.20
2022-09-27T02:48:42.360Z,0.22
2022-09-27T02:51:28.448Z,0.10
2022-09-27T02:54:06.737Z,0.30
2022-09-27T02:56:37.940Z,0.30
2022-09-27T02:59:10.035Z,0.20
2022-09-27T03:01:44.962Z,0.20
2022-09-27T03:04:19.085Z,0.10
2022-09-27T03:06:47.759Z,0.20
2022-09-27T03:09:19.669Z,0.10
2022-09-27T03:11:47.338Z,0.20
2022-09-27T03:14:15.088Z,0.20
2022-09-27T03:16:44.195Z,0.10
2022-09-27T03:19:12.053Z,0.03
2022-09-27T03:21:39.953Z,0.10
2022-09-27T03:24:07.935Z,0.10
2022-09-27T03:26:35.706Z,0.10
2022-09-27T03:29:03.371Z,0.00
2022-09-27T03:31:31.530Z,0.20
2022-09-27T03:34:00.605Z,0.10
2022-09-27T03:36:28.828Z,0.10
2022-09-27T03:38:56.474Z,0.20
2022-09-27T03:41:24.130Z,0.17
2022-09-27T03:43:51.977Z,0.15
2022-09-27T03:46:19.699Z,0.08
2022-09-27T03:48:47.379Z,0.17
2022-09-27T03:51:16.454Z,0.00
2022-09-27T03:53:44.069Z,0.08
2022-09-27T03:56:11.709Z,0.00
2022-09-27T03:58:39.341Z,0.05
2022-09-27T04:01:06.982Z,0.30
2022-09-27T04:03:36.079Z,0.10
2022-09-27T04:06:04.146Z,0.10
2022-09-27T04:08:33.151Z,0.10
2022-09-27T04:11:00.844Z,0.10
2022-09-27T04:13:28.456Z,0.10
2022-09-27T04:15:56.197Z,0.10
2022-09-27T04:18:23.919Z,0.25
2022-09-27T04:20:51.595Z,0.10
2022-09-27T04:23:20.644Z,0.10
2022-09-27T04:25:50.539Z,0.20
2022-09-27T04:28:18.218Z,0.20
2022-09-27T04:30:46.694Z,0.20
2022-09-27T04:33:14.864Z,0.30
2022-09-27T04:36:01.398Z,0.30
2022-09-27T04:38:29.071Z,0.40
2022-09-27T04:40:58.431Z,0.32
2022-09-27T04:43:26.628Z,0.20
2022-09-27T04:45:54.438Z,0.30
2022-09-27T04:48:22.080Z,0.40
2022-09-27T04:50:57.181Z,0.30
2022-09-27T04:53:25.099Z,0.50
2022-09-27T04:55:54.139Z,0.30
2022-09-27T04:58:23.397Z,0.40
2022-09-27T05:00:52.418Z,0.43
2022-09-27T05:03:20.222Z,0.50
2022-09-27T05:05:47.858Z,0.40
2022-09-27T05:08:15.522Z,0.40
2022-09-27T05:10:43.245Z,0.30
2022-09-27T05:13:10.877Z,0.50
2022-09-27T05:15:40.088Z,0.40
2022-09-27T05:18:08.130Z,0.40
2022-09-27T05:20:36.395Z,0.50
2022-09-27T05:23:04.687Z,0.40
2022-09-27T05:25:32.808Z,0.32
2022-09-27T05:28:00.585Z,0.60
2022-09-27T05:30:28.435Z,0.40
2022-09-27T05:32:57.543Z,0.40
2022-09-27T05:35:25.286Z,0.30
2022-09-27T05:37:54.034Z,0.30
2022-09-27T05:40:40.393Z,0.60
2022-09-27T05:43:09.442Z,2.05
2022-09-27T05:45:37.450Z,0.52
2022-09-27T05:48:06.725Z,0.63
2022-09-27T05:50:34.993Z,0.57
2022-09-27T05:53:02.691Z,0.77
2022-09-27T05:55:30.716Z,0.97
2022-09-27T05:57:59.674Z,0.70
2022-09-27T06:00:27.762Z,0.50
2022-09-27T06:02:57.201Z,0.75
2022-09-27T06:05:28.707Z,0.40
2022-09-27T06:08:00.399Z,0.68
2022-09-27T06:10:28.518Z,0.83
2022-09-27T06:13:00.871Z,0.70
2022-09-27T06:15:28.580Z,0.75
2022-09-27T06:17:56.245Z,0.55
2022-09-27T06:20:23.895Z,0.80
2022-09-27T06:22:54.127Z,0.82
2022-09-27T06:25:21.847Z,0.70
2022-09-27T06:27:49.483Z,0.68
2022-09-27T06:30:20.350Z,0.47
2022-09-27T06:32:48.366Z,0.90
2022-09-27T06:35:16.141Z,0.80
2022-09-27T06:37:43.789Z,1.05
2022-09-27T06:40:13.034Z,0.77
2022-09-27T06:42:40.844Z,0.80
2022-09-27T06:45:09.161Z,1.13
2022-09-27T06:47:36.953Z,1.57
2022-09-27T06:50:06.501Z,0.88
2022-09-27T06:52:35.057Z,1.08
2022-09-27T06:55:02.949Z,0.93
2022-09-27T06:57:49.282Z,0.80
2022-09-27T07:00:26.865Z,0.98
2022-09-27T07:03:00.851Z,0.90
2022-09-27T07:05:29.585Z,0.77
2022-09-27T07:07:57.862Z,0.75
2022-09-27T07:10:26.990Z,0.85
2022-09-27T07:12:56.573Z,1.08
2022-09-27T07:15:24.258Z,0.52
2022-09-27T07:17:57.977Z,0.93
2022-09-27T07:20:25.855Z,0.52
2022-09-27T07:22:54.032Z,0.80
2022-09-27T07:25:21.764Z,0.88
2022-09-27T07:27:49.616Z,0.90
2022-09-27T07:30:18.778Z,0.98
2022-09-27T07:32:46.403Z,1.10
2022-09-27T07:35:15.458Z,1.00
2022-09-27T07:37:43.457Z,0.70
2022-09-27T07:40:11.360Z,1.10
2022-09-27T07:42:39.260Z,1.23
2022-09-27T07:45:09.301Z,0.70
2022-09-27T07:47:39.107Z,0.75
2022-09-27T07:50:07.293Z,0.90
2022-09-27T07:52:40.621Z,0.70
2022-09-27T07:55:09.433Z,0.65
2022-09-27T07:57:37.510Z,1.40
2022-09-27T08:00:06.534Z,0.50
2022-09-27T08:02:34.284Z,0.20
2022-09-27T08:05:03.880Z,0.40
2022-09-27T08:07:32.936Z,0.38
2022-09-27T08:10:00.833Z,0.70
2022-09-27T08:12:28.515Z,0.40
2022-09-27T08:14:58.532Z,0.50
2022-09-27T08:17:26.274Z,0.33
2022-09-27T08:19:53.905Z,0.55
2022-09-27T08:22:22.960Z,0.28
2022-09-27T08:24:50.989Z,0.30
2022-09-27T08:27:19.089Z,0.63
2022-09-27T08:29:47.759Z,0.50
2022-09-27T08:32:18.311Z,0.82
2022-09-27T08:34:49.950Z,0.70
2022-09-27T08:37:17.620Z,0.40
2022-09-27T08:39:48.125Z,0.60
2022-09-27T08:42:20.844Z,0.70
2022-09-27T08:44:52.048Z,0.60
2022-09-27T08:47:25.120Z,0.60
2022-09-27T08:49:55.644Z,0.60
2022-09-27T08:52:27.693Z,0.30
2022-09-27T08:54:57.279Z,0.63
2022-09-27T08:57:25.483Z,0.30
2022-09-27T08:59:59.392Z,0.38
2022-09-27T09:02:27.357Z,0.50
2022-09-27T09:04:58.079Z,0.60
2022-09-27T09:07:37.363Z,0.33
2022-09-27T09:10:41.330Z,0.30
2022-09-27T09:13:12.669Z,0.20
2022-09-27T09:15:58.446Z,0.50
2022-09-27T09:18:34.887Z,0.25
2022-09-27T09:21:08.376Z,0.30
2022-09-27T09:24:02.410Z,0.40
2022-09-27T09:26:36.666Z,0.50
2022-09-27T09:29:14.076Z,0.30
2022-09-27T09:31:44.185Z,0.25
2022-09-27T09:34:16.558Z,0.10
2022-09-27T09:36:47.636Z,0.10
2022-09-27T09:39:19.126Z,0.10
2022-09-27T09:41:57.781Z,0.10
2022-09-27T09:44:28.610Z,0.10
2022-09-27T09:46:58.415Z,0.17
2022-09-27T09:49:29.433Z,0.10
2022-09-27T09:52:01.735Z,0.20
2022-09-27T09:54:34.007Z,0.30
2022-09-27T09:57:08.995Z,0.20
2022-09-27T09:59:42.988Z,0.30
2022-09-27T10:02:23.025Z,0.22
2022-09-27T10:04:50.823Z,0.40
2022-09-27T10:07:21.794Z,0.40
2022-09-27T10:09:49.492Z,0.20
2022-09-27T10:12:18.544Z,0.20
2022-09-27T10:14:48.126Z,0.10
2022-09-27T10:17:18.081Z,0.10
2022-09-27T10:19:46.182Z,0.10
2022-09-27T10:22:16.802Z,0.20
2022-09-27T10:24:56.342Z,0.10
2022-09-27T10:27:26.561Z,0.30
2022-09-27T10:29:58.823Z,0.10
2022-09-27T10:32:31.282Z,0.22
2022-09-27T10:35:23.600Z,0.20
2022-09-27T10:37:52.559Z,0.30
2022-09-27T10:40:28.971Z,0.20
2022-09-27T10:42:58.034Z,0.40
2022-09-27T10:45:31.038Z,0.30
2022-09-27T10:47:59.435Z,0.30
2022-09-27T10:53:18.777Z,0.47
2022-09-27T10:55:48.951Z,0.10
2022-09-27T10:58:21.037Z,0.00
2022-09-27T11:00:56.456Z,0.00
2022-09-27T11:03:25.486Z,0.10
2022-09-27T11:05:54.706Z,0.00
2022-09-27T11:08:27.439Z,0.10
2022-09-27T11:11:07.615Z,0.20
2022-09-27T11:13:36.701Z,0.07
2022-09-27T11:16:21.086Z,0.10
2022-09-27T11:18:55.139Z,0.20
2022-09-27T11:21:31.746Z,0.10
2022-09-27T11:24:09.405Z,0.10
2022-09-27T11:26:45.915Z,0.20
2022-09-27T11:29:25.651Z,0.15
2022-09-27T11:32:04.817Z,0.10
2022-09-27T11:34:44.596Z,0.10
2022-09-27T11:37:21.124Z,0.20
2022-09-27T11:39:58.211Z,0.10
2022-09-27T11:42:43.855Z,0.00
2022-09-27T11:45:41.208Z,0.10
2022-09-27T11:48:24.457Z,0.10
2022-09-27T11:50:58.755Z,0.20
2022-09-27T11:53:35.675Z,0.30
2022-09-27T11:56:08.386Z,0.35
2022-09-27T11:58:43.657Z,0.28
2022-09-27T12:01:23.933Z,0.10
2022-09-27T12:04:09.170Z,0.10
2022-09-27T12:06:44.467Z,0.40
2022-09-27T12:09:14.803Z,0.73
2022-09-27T12:11:46.023Z,0.40
2022-09-27T12:14:21.629Z,0.55
2022-09-27T12:16:55.185Z,0.45
2022-09-27T12:19:25.678Z,0.40
2022-09-27T12:21:53.327Z,0.20
2022-09-27T12:24:23.155Z,0.20
2022-09-27T12:26:53.009Z,0.30
2022-09-27T12:29:23.540Z,0.20
2022-09-27T12:31:58.736Z,0.13
2022-09-27T12:34:31.497Z,0.20
2022-09-27T12:37:04.581Z,0.15
2022-09-27T12:39:42.554Z,0.17
2022-09-27T12:42:16.119Z,0.10
2022-09-27T12:44:47.536Z,0.13
2022-09-27T12:47:33.321Z,0.03
2022-09-27T12:50:05.212Z,0.10
2022-09-27T12:52:35.402Z,0.10
2022-09-27T12:55:26.327Z,0.10
2022-09-27T12:58:08.641Z,0.10
2022-09-27T13:00:38.327Z,0.17
2022-09-27T13:03:39.187Z,0.32
2022-09-27T13:06:27.431Z,0.10
2022-09-27T13:09:17.708Z,0.20
2022-09-27T13:11:49.479Z,0.10
2022-09-27T13:14:19.686Z,0.20
2022-09-27T13:16:48.157Z,0.13
2022-09-27T13:19:40.300Z,0.30
2022-09-27T13:22:09.131Z,0.00
2022-09-27T13:24:48.242Z,0.10
2022-09-27T13:27:38.484Z,0.10
2022-09-27T13:30:48.703Z,0.10
2022-09-27T13:33:44.397Z,0.10
2022-09-27T13:36:30.380Z,0.10
2022-09-27T13:39:26.642Z,0.10
2022-09-27T13:42:09.118Z,0.10
2022-09-27T13:44:47.150Z,0.10
2022-09-27T13:47:26.394Z,0.20
2022-09-27T13:49:58.347Z,0.10
2022-09-27T13:52:33.811Z,0.00
2022-09-27T13:55:02.965Z,0.50
2022-09-27T13:57:44.171Z,0.10
2022-09-27T14:00:14.597Z,0.10
2022-09-27T14:02:51.311Z,0.10
2022-09-27T14:05:23.034Z,0.00
2022-09-27T14:07:53.301Z,0.10
2022-09-27T14:10:24.179Z,0.08
2022-09-27T14:12:53.539Z,0.10
2022-09-27T14:16:08.671Z,0.10
2022-09-27T14:18:37.662Z,0.10
2022-09-27T14:21:16.010Z,0.10
2022-09-27T14:23:43.755Z,2.45
2022-09-27T14:26:23.490Z,0.40
2022-09-27T14:28:51.143Z,0.10
2022-09-27T14:31:22.989Z,0.00
2022-09-27T14:33:52.277Z,0.00
2022-09-27T14:36:44.938Z,0.10
2022-09-27T14:39:17.121Z,0.00
2022-09-27T14:41:45.300Z,0.05
2022-09-27T14:44:17.779Z,0.10
2022-09-27T14:46:47.935Z,0.10
2022-09-27T14:49:25.894Z,0.00
2022-09-27T14:51:54.489Z,0.17
2022-09-27T14:54:25.276Z,0.13
2022-09-27T14:56:54.521Z,0.10
2022-09-27T14:59:30.667Z,0.20
2022-09-27T15:02:01.758Z,0.10
2022-09-27T15:04:32.016Z,0.10
2022-09-27T15:07:01.756Z,0.08
2022-09-27T15:09:32.967Z,0.10
2022-09-27T15:12:04.868Z,0.20
2022-09-27T15:14:33.766Z,0.10
2022-09-27T15:17:06.182Z,0.10
2022-09-27T15:19:34.440Z,0.30
2022-09-27T15:22:23.402Z,0.30
2022-09-27T15:24:52.078Z,0.35
2022-09-27T15:27:22.600Z,0.30
2022-09-27T15:29:51.454Z,0.10
2022-09-27T15:32:22.814Z,0.08
2022-09-27T15:34:50.924Z,0.20
2022-09-27T15:37:29.115Z,0.07
2022-09-27T15:39:57.150Z,0.40
2022-09-27T15:42:24.837Z,0.45
2022-09-27T15:44:54.119Z,1.20
2022-09-27T15:47:42.339Z,0.40
2022-09-27T15:50:38.064Z,0.20
2022-09-27T15:53:06.991Z,0.40
2022-09-27T15:55:37.706Z,0.50
2022-09-27T15:58:08.199Z,0.20
2022-09-27T16:00:36.914Z,0.10
2022-09-27T16:03:06.133Z,0.30
2022-09-27T16:05:33.857Z,0.60
2022-09-27T16:08:01.968Z,0.25
2022-09-27T16:10:33.092Z,0.47
2022-09-27T16:13:00.745Z,0.80
2022-09-27T16:15:28.379Z,0.20
2022-09-27T16:17:57.686Z,0.20
2022-09-27T16:20:28.045Z,0.10
2022-09-27T16:22:56.505Z,0.10
2022-09-27T16:25:24.391Z,0.17
2022-09-27T16:27:52.404Z,0.15
2022-09-27T16:30:21.081Z,0.30
2022-09-27T16:32:50.009Z,0.33
2022-09-27T16:35:19.606Z,0.10
2022-09-27T16:39:47.861Z,0.08
2022-09-27T16:42:15.996Z,0.05
2022-09-27T16:44:43.718Z,0.10
2022-09-27T16:47:11.399Z,0.15
2022-09-27T16:49:56.470Z,0.30
2022-09-27T16:52:24.117Z,0.30
2022-09-27T16:54:53.165Z,0.20
2022-09-27T16:57:20.874Z,0.20
2022-09-27T16:59:48.912Z,0.20
2022-09-27T17:02:18.006Z,0.20
2022-09-27T17:04:45.705Z,0.20
2022-09-27T17:07:13.488Z,0.20
2022-09-27T17:09:41.166Z,0.20
2022-09-27T17:12:12.036Z,0.20
2022-09-27T17:14:39.943Z,0.00
2022-09-27T17:17:08.296Z,0.30
2022-09-27T17:19:39.074Z,0.40
2022-09-27T17:22:08.517Z,0.50
2022-09-27T17:24:36.571Z,2.50
2022-09-27T17:27:04.327Z,2.85
2022-09-27T17:29:33.610Z,2.60
2022-09-27T17:32:01.604Z,2.00
2022-09-27T17:34:29.275Z,1.60
2022-09-27T17:36:57.138Z,0.45
2022-09-27T17:39:24.767Z,0.70
2022-09-27T17:41:52.545Z,0.63
2022-09-27T17:44:20.334Z,0.50
2022-09-27T17:47:09.710Z,0.60
2022-09-27T17:49:54.692Z,0.30
2022-09-27T17:52:23.452Z,0.20
2022-09-27T17:54:51.750Z,0.50
2022-09-27T17:57:19.429Z,1.35
2022-09-27T17:59:47.155Z,1.88
2022-09-27T18:02:16.410Z,1.02
2022-09-27T18:04:44.195Z,0.68
2022-09-27T18:07:13.063Z,0.60
2022-09-27T18:09:40.798Z,0.50
2022-09-27T18:12:08.565Z,0.60
2022-09-27T18:14:36.585Z,0.90
2022-09-27T18:17:04.324Z,0.80
2022-09-27T18:19:33.626Z,1.10
2022-09-27T18:22:01.890Z,0.98
2022-09-27T18:24:29.529Z,2.40
2022-09-27T18:26:59.866Z,3.35
2022-09-27T18:29:28.685Z,4.00
2022-09-27T18:31:56.405Z,3.33
2022-09-27T18:34:24.454Z,6.25
2022-09-27T18:36:53.561Z,14.70
2022-09-27T18:39:21.501Z,7.35
2022-09-27T18:41:49.577Z,5.10
2022-09-27T18:44:18.141Z,5.82
2022-09-27T18:46:46.450Z,6.18
2022-09-27T18:49:15.372Z,3.53
2022-09-27T18:51:46.054Z,3.05
2022-09-27T18:54:17.254Z,2.88
2022-09-27T18:56:45.307Z,4.00
2022-09-27T18:59:13.258Z,5.93
2022-09-27T19:01:44.832Z,3.85
2022-09-27T19:04:15.043Z,7.03
2022-09-27T19:06:42.835Z,15.20
2022-09-27T19:09:12.385Z,13.73
2022-09-27T19:11:41.501Z,12.80
2022-09-27T19:14:09.194Z,7.03
2022-09-27T19:16:36.884Z,12.38
2022-09-27T19:19:04.478Z,12.40
2022-09-27T19:21:32.119Z,7.35
2022-09-27T19:23:59.830Z,10.32
2022-09-27T19:26:28.281Z,6.72
2022-09-27T19:28:58.794Z,8.68
2022-09-27T19:31:29.314Z,9.02
2022-09-27T19:34:00.193Z,5.35
2022-09-27T19:36:29.122Z,4.25
2022-09-27T19:38:58.623Z,3.60
2022-09-27T19:41:26.893Z,3.72
2022-09-27T19:43:55.461Z,3.28
2022-09-27T19:46:25.999Z,2.90
2022-09-27T19:48:55.095Z,2.47
2022-09-27T19:51:23.877Z,3.60
2022-09-27T19:53:52.351Z,3.95
2022-09-27T19:56:20.629Z,3.65
2022-09-27T19:58:48.522Z,2.83
2022-09-27T20:01:19.225Z,2.42
2022-09-27T20:03:49.325Z,2.63
2022-09-27T20:06:18.867Z,2.67
2022-09-27T20:08:47.825Z,3.38
2022-09-27T20:11:17.445Z,3.25
2022-09-27T20:13:45.248Z,3.13
2022-09-27T20:16:14.411Z,3.83
2022-09-27T20:18:43.321Z,4.32
2022-09-27T20:21:12.861Z,4.28
2022-09-27T20:23:41.048Z,5.25
2022-09-27T20:26:10.186Z,4.50
2022-09-27T20:28:41.925Z,4.60
2022-09-27T20:31:09.845Z,3.75
2022-09-27T20:33:44.099Z,4.18
2022-09-27T20:36:14.542Z,4.30
2022-09-27T20:38:43.306Z,4.53
2022-09-27T20:41:11.585Z,4.60
2022-09-27T20:43:39.394Z,5.22
2022-09-27T20:46:08.816Z,4.82
2022-09-27T20:48:38.201Z,4.30
2022-09-27T20:51:06.540Z,4.07
2022-09-27T20:53:35.755Z,4.10
2022-09-27T20:56:03.752Z,4.55
2022-09-27T20:58:32.510Z,4.70
2022-09-27T21:01:07.489Z,4.55
2022-09-27T21:03:35.513Z,3.90
2022-09-27T21:06:04.569Z,4.05
2022-09-27T21:08:34.264Z,4.32
2022-09-27T21:11:08.546Z,4.32
2022-09-27T21:13:36.909Z,4.82
2022-09-27T21:16:05.817Z,4.00
2022-09-27T21:18:33.906Z,5.00
2022-09-27T21:21:02.901Z,4.93
2022-09-27T21:23:31.140Z,4.35
2022-09-27T21:26:03.271Z,4.50
2022-09-27T21:28:37.386Z,5.05
2022-09-27T21:31:07.035Z,5.13
2022-09-27T21:33:34.898Z,5.07
2022-09-27T21:36:03.274Z,6.03
2022-09-27T21:38:31.519Z,5.72
2022-09-27T21:41:00.182Z,6.50
2022-09-27T21:43:28.657Z,6.25
2022-09-27T21:46:03.821Z,7.78
2022-09-27T21:48:31.591Z,6.45
2022-09-27T21:51:07.251Z,6.30
2022-09-27T21:53:35.455Z,5.90
2022-09-27T21:56:03.789Z,5.75
2022-09-27T21:58:34.040Z,5.65
2022-09-27T22:01:09.452Z,5.45
2022-09-27T22:03:37.561Z,5.18
2022-09-27T22:06:06.481Z,5.00
2022-09-27T22:08:34.124Z,5.15
2022-09-27T22:11:01.852Z,5.15
2022-09-27T22:13:29.634Z,6.07
2022-09-27T22:15:57.524Z,5.15
2022-09-27T22:18:26.988Z,5.88
2022-09-27T22:20:54.654Z,6.88
2022-09-27T22:23:22.388Z,6.55
2022-09-27T22:25:50.052Z,5.40
2022-09-27T22:28:17.807Z,5.88
2022-09-27T22:30:45.493Z,5.70
2022-09-27T22:33:13.445Z,6.05
2022-09-27T22:35:47.799Z,5.45
2022-09-27T22:38:16.038Z,6.40
2022-09-27T22:40:43.823Z,6.75
2022-09-27T22:43:12.124Z,5.50
2022-09-27T22:45:40.232Z,5.95
2022-09-27T22:48:07.974Z,5.57
2022-09-27T22:50:36.177Z,6.45
2022-09-27T22:53:05.240Z,5.97
2022-09-27T22:55:32.853Z,6.57
2022-09-27T22:58:00.577Z,6.90
2022-09-27T23:00:28.355Z,6.78
2022-09-27T23:02:56.452Z,7.13
2022-09-27T23:05:24.765Z,6.80
2022-09-27T23:07:53.142Z,6.30
2022-09-27T23:10:23.385Z,7.35
2022-09-27T23:12:54.567Z,6.80
2022-09-27T23:15:22.503Z,6.65
2022-09-27T23:17:50.996Z,7.38
2022-09-27T23:20:18.767Z,7.80
2022-09-27T23:22:46.557Z,8.07
2022-09-27T23:25:14.483Z,7.00
2022-09-27T23:27:45.179Z,7.47
2022-09-27T23:30:14.077Z,7.90
2022-09-27T23:32:44.692Z,7.05
2022-09-27T23:35:12.533Z,7.75
2022-09-27T23:37:40.344Z,7.95
2022-09-27T23:40:09.558Z,7.03
2022-09-27T23:42:37.629Z,7.28
2022-09-27T23:45:07.671Z,7.00
2022-09-27T23:47:35.370Z,6.70
2022-09-27T23:50:03.098Z,7.13
2022-09-27T23:52:30.751Z,7.30
2022-09-27T23:54:58.462Z,7.10
2022-09-27T23:57:26.129Z,7.63
2022-09-27T23:59:53.870Z,7.07
